Oakland City, IN (47660)

1:42 PM CDT on July 25, 2016 (GMT -0500)
1 Block West of Oakland City University | | Change Station

Elev 490 ft 38.34 °N, 87.35 °W | Updated 4 seconds ago

Overcast
Overcast
81.6 °F
Feels Like 87 °F
N
2.0
Wind Variable Wind from SW
Gusts 16.0 mph

Today
High -- | Low -- °F
--% Chance of Precip.
Yesterday
High -- | Low -- °F
Precip. -- in
Pressure 30.01 in
Visibility 9.0 miles
Clouds Few 3700 ft
Scattered Clouds 4600 ft
Mostly Cloudy 7000 ft
Heat Index 87 °F
Dew Point 72 °F
Humidity 74%
Rainfall 0.00 in
Snow Depth Not available.
5:46 AM 8:05 PM
Waning Gibbous, 63% visible
METAR KHNB 251835Z 18011KT 9SM TS FEW037 SCT046 BKN070 23/21 A3001 RMK AO1 LTG DSNT ALQDS P0003
Pressure 30.01 in
Visibility 9.0 miles
Clouds Few 3700 ft
Scattered Clouds 4600 ft
Mostly Cloudy 7000 ft
Heat Index 87 °F
Dew Point 72 °F
Humidity 74%
Rainfall 0.00 in
Snow Depth Not available.
5:46 AM 8:05 PM
Waning Gibbous, 63% visible
METAR KHNB 251835Z 18011KT 9SM TS FEW037 SCT046 BKN070 23/21 A3001 RMK AO1 LTG DSNT ALQDS P0003
Record highs are possible for parts of the Northeast Monday and Tuesday, as parts of the central U.S. take a little breather from the worst of summer's dog day heat.

Expansive high pressure in the upper atmosphere will focus on parts of the East and West this week, sending heat indices well into the triple digits from the Mid-Atlantic states into the South.

10-Day Weather Forecast

Almanac

Astronomy

Jul. 25, 2016 Rise Set
Actual Time
Civil Twilight
Nautical Twilight
Astronomical Twilight
Moon
Length of Visible Light
Length of Day
Tomorrow will be .
, % of the Moon is Illuminated

Today's Extremes

State Highs State Lows

Community

WunderPhotos

Upload Photos

1,927,370 photos uploaded!

WunderBlog® & News

Nearby

Air Quality

  Air Quality AQ Index Pollutant
Not available.

Snow Depth

Station Depth Elevation

Earthquake Activity

City Distance Mag. Time & Date
Minimum magnitude displayed is 2.5.

Coastal Water Temperatures

Place Temperature

Stations

Nearby Weather Stations

Station Location Temp. Windchill Dew Point Humidity Wind Precip. Elev Updated Type
                   

Watches & Warnings

There are currently no watches in effect.